Time;durP1;ratioP1;P1;durP2;ratioP2;P2;SDS_P1;SDS_P2;PMS_P1;PMS_P2;Temp;Humidity;BMP_temperature;BMP_pressure;BME280_temperature;BME280_humidity;BME280_pressure;Samples;Min_cycle;Max_cycle;Signal;HPM_P1;HPM_P2
2022/06/23 00:01:17;;;;;;;1.88;1.30;;;24.30;42.70;;;;;;5048018;28;20025;-78
2022/06/23 00:03:44;;;;;;;1.67;1.30;;;24.30;43.60;;;;;;5049313;28;20065;-78
2022/06/23 00:06:25;;;;;;;2.38;1.40;;;24.30;42.90;;;;;;5015546;28;20531;-78
2022/06/23 00:08:51;;;;;;;1.75;1.30;;;24.20;43.80;;;;;;5034802;28;20064;-78
2022/06/23 00:11:22;;;;;;;3.63;1.30;;;24.20;43.00;;;;;;5035685;28;20588;-78
2022/06/23 00:13:48;;;;;;;1.88;1.30;;;24.20;43.20;;;;;;5046944;28;20036;-78
2022/06/23 00:16:25;;;;;;;2.05;1.30;;;24.10;43.10;;;;;;5052528;28;20032;-78
2022/06/23 00:18:51;;;;;;;1.67;1.20;;;24.10;44.00;;;;;;5054255;28;20717;-78
2022/06/23 00:21:21;;;;;;;2.75;1.40;;;24.00;43.20;;;;;;5011003;28;20146;-78
2022/06/23 00:23:51;;;;;;;2.50;1.33;;;24.00;43.70;;;;;;5052068;28;20420;-78
2022/06/23 00:26:30;;;;;;;1.65;1.40;;;24.00;43.60;;;;;;5049419;28;20509;-78
2022/06/23 00:29:13;;;;;;;1.75;1.30;;;23.90;44.20;;;;;;5038666;28;20086;-78
2022/06/23 00:31:41;;;;;;;2.17;1.20;;;23.80;44.30;;;;;;5042819;28;20440;-78
2022/06/23 00:34:37;;;;;;;1.77;1.35;;;23.70;43.50;;;;;;5047588;28;20505;-78
2022/06/23 00:37:16;;;;;;;1.50;1.25;;;23.70;44.60;;;;;;5004598;28;20064;-78
2022/06/23 00:40:11;;;;;;;2.78;1.20;;;23.60;44.00;;;;;;5046145;28;20037;-78
2022/06/23 00:42:50;;;;;;;1.55;1.15;;;23.60;44.70;;;;;;5051286;28;20148;-78
2022/06/23 00:45:30;;;;;;;1.23;1.13;;;23.50;44.30;;;;;;5034641;28;20462;-78
2022/06/23 00:48:18;;;;;;;1.70;1.23;;;23.40;44.40;;;;;;5045834;28;20025;-78
2022/06/23 00:50:50;;;;;;;1.30;1.20;;;23.40;44.80;;;;;;5040428;28;20464;-78
2022/06/23 00:53:27;;;;;;;1.95;1.20;;;23.30;44.40;;;;;;5019793;28;20512;-78
2022/06/23 00:56:17;;;;;;;1.30;1.10;;;23.20;44.70;;;;;;5055881;28;20504;-78
2022/06/23 00:58:51;;;;;;;1.60;1.20;;;23.20;44.50;;;;;;5034442;28;20495;-78
2022/06/23 01:01:23;;;;;;;1.50;1.15;;;23.10;45.40;;;;;;5034728;28;20085;-78
2022/06/23 01:04:27;;;;;;;4.20;1.10;;;23.10;44.70;;;;;;5049721;28;20041;-78
2022/06/23 01:07:12;;;;;;;1.58;1.10;;;23.00;44.90;;;;;;5028296;28;20124;-78
2022/06/23 01:09:50;;;;;;;3.35;1.30;;;23.00;44.50;;;;;;5047230;28;20482;-78
2022/06/23 01:12:36;;;;;;;1.40;1.20;;;23.00;45.00;;;;;;5050996;28;20024;-78
2022/06/23 01:15:20;;;;;;;1.58;1.10;;;22.90;45.00;;;;;;5039491;28;20591;-78
2022/06/23 01:18:02;;;;;;;1.10;1.00;;;22.90;44.60;;;;;;5052471;28;20039;-78
2022/06/23 01:21:01;;;;;;;3.42;1.30;;;22.80;45.30;;;;;;5053772;28;20032;-78
2022/06/23 01:23:27;;;;;;;2.03;1.10;;;22.80;45.80;;;;;;5012456;28;20040;-78
2022/06/23 01:26:11;;;;;;;1.40;1.00;;;22.80;44.80;;;;;;5050848;28;20037;-78
2022/06/23 01:28:39;;;;;;;1.50;1.10;;;22.70;45.60;;;;;;5039768;28;20041;-78
2022/06/23 01:31:34;;;;;;;1.10;1.00;;;22.70;45.00;;;;;;5037620;28;20400;-78
2022/06/23 01:34:12;;;;;;;1.55;1.15;;;22.60;45.60;;;;;;5050145;28;20056;-78
2022/06/23 01:36:46;;;;;;;2.33;1.20;;;22.70;45.60;;;;;;5050155;28;20107;-78
2022/06/23 01:39:19;;;;;;;1.20;1.10;;;22.60;46.20;;;;;;5014655;28;20499;-78
2022/06/23 01:41:47;;;;;;;1.45;1.15;;;22.60;45.70;;;;;;5055247;28;20396;-78
2022/06/23 01:44:51;;;;;;;1.30;1.20;;;22.50;45.20;;;;;;5049570;28;20472;-78
2022/06/23 01:47:36;;;;;;;1.77;1.20;;;22.50;46.00;;;;;;5028823;28;20290;-78
2022/06/23 01:50:13;;;;;;;1.33;1.20;;;22.50;45.40;;;;;;5051714;28;20443;-78
2022/06/23 01:52:41;;;;;;;1.15;1.05;;;22.50;46.50;;;;;;5051378;28;20445;-78
2022/06/23 01:55:17;;;;;;;2.50;1.30;;;22.40;45.90;;;;;;5012335;28;20048;-78
2022/06/23 01:57:48;;;;;;;1.27;1.10;;;22.40;46.60;;;;;;5036088;28;20377;-78
2022/06/23 02:00:20;;;;;;;1.48;1.08;;;22.30;46.30;;;;;;5049404;28;20032;-78
2022/06/23 02:03:16;;;;;;;2.72;1.30;;;22.30;46.80;;;;;;5044403;28;20496;-78
2022/06/23 02:05:45;;;;;;;2.00;1.23;;;22.30;47.50;;;;;;5047535;28;20485;-78
2022/06/23 02:08:48;;;;;;;2.08;1.30;;;22.20;46.80;;;;;;5052167;28;20380;-78
2022/06/23 02:11:47;;;;;;;1.40;1.07;;;22.20;47.30;;;;;;5009741;28;20545;-78
2022/06/23 02:14:33;;;;;;;2.17;1.30;;;22.20;47.40;;;;;;5051357;28;20533;-78
2022/06/23 02:17:10;;;;;;;2.05;1.30;;;22.10;46.70;;;;;;5032121;28;20052;-78
2022/06/23 02:19:44;;;;;;;1.88;1.23;;;22.10;46.70;;;;;;5045962;28;20386;-78
2022/06/23 02:22:18;;;;;;;2.25;1.45;;;22.10;47.60;;;;;;5040471;28;20033;-78
2022/06/23 02:24:52;;;;;;;1.70;1.40;;;22.10;47.10;;;;;;5055568;28;20408;-78
2022/06/23 02:27:37;;;;;;;1.52;1.10;;;22.00;47.50;;;;;;5001426;28;20489;-78
2022/06/23 02:30:17;;;;;;;2.10;1.38;;;22.00;48.00;;;;;;5039677;28;20240;-78
2022/06/23 02:32:42;;;;;;;2.60;1.35;;;22.00;47.90;;;;;;5038534;28;20017;-78
2022/06/23 02:35:34;;;;;;;1.47;1.30;;;22.00;47.30;;;;;;5041681;28;20478;-78
2022/06/23 02:38:05;;;;;;;2.00;1.35;;;21.90;47.80;;;;;;5054635;28;20352;-78
2022/06/23 02:40:49;;;;;;;1.70;1.40;;;21.90;47.40;;;;;;5048197;28;20245;-78
2022/06/23 02:43:43;;;;;;;1.75;1.40;;;21.90;48.30;;;;;;5032050;28;20206;-78
2022/06/23 02:46:14;;;;;;;2.43;1.30;;;21.80;48.30;;;;;;5054864;28;20036;-78
2022/06/23 02:48:56;;;;;;;1.75;1.40;;;21.80;47.80;;;;;;5036764;28;20037;-78
2022/06/23 02:51:40;;;;;;;1.75;1.30;;;21.80;47.50;;;;;;5057411;28;20036;-78
2022/06/23 02:54:17;;;;;;;1.77;1.20;;;21.70;48.70;;;;;;5046064;28;20516;-78
2022/06/23 02:57:19;;;;;;;2.28;1.33;;;21.60;47.50;;;;;;5057960;28;20111;-78
2022/06/23 02:59:44;;;;;;;1.83;1.50;;;21.60;48.80;;;;;;5041363;28;20040;-79
2022/06/23 03:02:20;;;;;;;1.67;1.20;;;21.60;47.70;;;;;;5049223;28;20389;-78
2022/06/23 03:04:51;;;;;;;2.60;1.20;;;21.50;48.30;;;;;;5042106;28;20033;-78
2022/06/23 03:07:41;;;;;;;3.55;1.40;;;21.50;48.30;;;;;;5042995;28;20242;-78
2022/06/23 03:10:19;;;;;;;2.10;1.35;;;21.40;49.10;;;;;;5050440;28;20035;-78
2022/06/23 03:12:54;;;;;;;2.10;1.50;;;21.40;48.50;;;;;;5033069;28;20064;-78
2022/06/23 03:15:36;;;;;;;1.90;1.30;;;21.30;48.50;;;;;;5040431;28;20143;-78
2022/06/23 03:18:10;;;;;;;2.43;1.33;;;21.30;48.80;;;;;;5050146;28;20074;-78
2022/06/23 03:20:44;;;;;;;2.47;1.38;;;21.30;48.80;;;;;;5033021;28;20029;-78
2022/06/23 03:23:39;;;;;;;2.03;1.27;;;21.30;49.10;;;;;;5051360;28;20033;-78
2022/06/23 03:26:13;;;;;;;2.20;1.30;;;21.20;50.10;;;;;;5035296;28;20045;-78
2022/06/23 03:28:52;;;;;;;2.65;1.40;;;21.10;49.40;;;;;;5029288;28;20025;-78
2022/06/23 03:31:30;;;;;;;1.63;1.20;;;21.10;49.50;;;;;;5048572;28;20576;-78
2022/06/23 03:34:14;;;;;;;1.45;1.20;;;21.10;49.40;;;;;;5051333;28;20401;-78
2022/06/23 03:37:03;;;;;;;1.92;1.10;;;21.00;49.80;;;;;;5046681;28;20471;-78
2022/06/23 03:42:46;;;;;;;2.13;1.40;;;21.00;50.00;;;;;;5052466;28;20033;-78
2022/06/23 03:45:33;;;;;;;1.30;1.20;;;20.90;49.70;;;;;;5013897;28;20041;-78
2022/06/23 03:48:31;;;;;;;1.75;1.15;;;20.90;50.40;;;;;;5049649;28;20025;-78
2022/06/23 03:51:00;;;;;;;2.28;1.30;;;20.90;50.60;;;;;;5042421;28;20167;-78
2022/06/23 03:53:31;;;;;;;1.75;1.17;;;20.80;49.40;;;;;;5040030;28;20726;-78
2022/06/23 03:56:20;;;;;;;2.20;1.30;;;20.80;50.00;;;;;;5045089;28;20533;-78
2022/06/23 03:58:58;;;;;;;1.93;1.30;;;20.90;51.00;;;;;;5053275;28;20039;-78
2022/06/23 04:01:25;;;;;;;1.90;1.25;;;20.80;50.40;;;;;;5032518;28;20058;-78
2022/06/23 04:04:03;;;;;;;1.73;1.30;;;20.80;49.90;;;;;;5053811;28;20041;-78
2022/06/23 04:06:36;;;;;;;2.40;1.17;;;20.80;50.10;;;;;;5046395;28;20032;-78
2022/06/23 04:09:17;;;;;;;1.75;1.40;;;20.80;50.60;;;;;;5045005;28;20032;-78
2022/06/23 04:12:10;;;;;;;1.63;1.40;;;20.80;50.60;;;;;;5054460;28;20488;-78
2022/06/23 04:15:00;;;;;;;2.55;1.30;;;20.80;50.90;;;;;;5020785;28;20044;-77
2022/06/23 04:17:43;;;;;;;2.72;1.50;;;20.80;50.60;;;;;;5051445;28;20110;-78
2022/06/23 04:20:09;;;;;;;2.33;1.45;;;20.80;51.70;;;;;;5036392;28;20036;-78
2022/06/23 04:22:44;;;;;;;2.00;1.40;;;20.70;50.30;;;;;;5046411;28;20051;-78
2022/06/23 04:25:17;;;;;;;1.75;1.30;;;20.70;51.00;;;;;;5033548;28;20044;-78
2022/06/23 04:27:52;;;;;;;2.08;1.50;;;20.70;50.90;;;;;;5051296;28;20327;-78
2022/06/23 04:30:27;;;;;;;2.78;1.48;;;20.80;51.60;;;;;;5022806;28;20141;-78
2022/06/23 04:32:55;;;;;;;2.00;1.40;;;20.80;51.00;;;;;;5030458;28;20330;-78
2022/06/23 04:35:32;;;;;;;1.75;1.55;;;20.80;51.00;;;;;;5050631;28;20312;-78
2022/06/23 04:38:15;;;;;;;2.35;1.50;;;20.80;52.20;;;;;;5052940;28;20029;-78
2022/06/23 04:40:41;;;;;;;2.08;1.40;;;20.80;52.20;;;;;;5034545;28;20222;-78
2022/06/23 04:43:16;;;;;;;2.57;1.50;;;20.80;51.30;;;;;;5050090;28;20044;-78
2022/06/23 04:45:51;;;;;;;3.15;1.48;;;20.80;52.00;;;;;;5034561;28;20111;-78
2022/06/23 04:48:26;;;;;;;2.30;1.60;;;20.80;52.40;;;;;;5043095;28;20144;-78
2022/06/23 04:51:06;;;;;;;1.90;1.50;;;20.80;52.10;;;;;;5034421;28;20500;-77
2022/06/23 04:53:47;;;;;;;2.40;1.60;;;20.80;52.80;;;;;;5062756;28;20035;-78
2022/06/23 04:56:22;;;;;;;2.10;1.40;;;20.80;53.20;;;;;;5047529;28;20340;-78
2022/06/23 04:58:57;;;;;;;2.00;1.40;;;20.90;52.80;;;;;;5047917;28;20534;-78
2022/06/23 05:01:26;;;;;;;2.38;1.50;;;20.80;52.40;;;;;;5036134;28;20037;-78
2022/06/23 05:03:57;;;;;;;1.90;1.45;;;20.90;52.30;;;;;;5008218;28;20049;-78
2022/06/23 05:06:38;;;;;;;2.03;1.60;;;20.90;52.60;;;;;;5041422;28;20040;-78
2022/06/23 05:09:34;;;;;;;2.85;1.58;;;21.00;53.10;;;;;;5019412;28;20041;-78
2022/06/23 05:12:20;;;;;;;2.20;1.50;;;21.00;52.90;;;;;;5048996;28;20400;-78
2022/06/23 05:14:55;;;;;;;1.90;1.60;;;21.00;52.40;;;;;;5044425;28;20389;-78
2022/06/23 05:17:24;;;;;;;2.15;1.70;;;21.10;53.10;;;;;;5014185;28;20059;-78
2022/06/23 05:19:57;;;;;;;2.60;1.60;;;21.10;52.60;;;;;;5049778;28;20059;-78
2022/06/23 05:22:30;;;;;;;2.63;1.70;;;21.10;52.80;;;;;;5040866;28;20363;-78
2022/06/23 05:24:58;;;;;;;1.83;1.50;;;21.10;52.40;;;;;;5017274;28;20036;-79
2022/06/23 05:27:29;;;;;;;2.60;1.60;;;21.20;52.60;;;;;;5043021;28;20108;-78
2022/06/23 05:30:27;;;;;;;3.03;1.60;;;21.20;52.90;;;;;;5046153;28;20040;-78
2022/06/23 05:33:01;;;;;;;2.37;1.60;;;21.20;53.40;;;;;;5029172;28;20039;-78
2022/06/23 05:36:05;;;;;;;2.30;1.80;;;21.30;52.70;;;;;;5045570;28;20025;-78
2022/06/23 05:38:44;;;;;;;2.58;1.40;;;21.30;52.90;;;;;;5019042;28;20477;-78
2022/06/23 05:41:34;;;;;;;1.85;1.50;;;21.40;52.90;;;;;;5027489;28;20363;-78
2022/06/23 05:44:06;;;;;;;1.88;1.55;;;21.50;53.70;;;;;;5046113;28;20032;-78
2022/06/23 05:46:36;;;;;;;2.13;1.70;;;21.50;53.20;;;;;;5046556;28;20238;-78
2022/06/23 05:49:13;;;;;;;2.38;1.60;;;21.60;53.20;;;;;;5023134;28;20037;-78
2022/06/23 05:51:53;;;;;;;2.00;1.60;;;21.60;53.40;;;;;;5051826;28;20664;-78
2022/06/23 05:54:30;;;;;;;2.20;1.60;;;21.70;53.40;;;;;;5045503;28;20485;-78
2022/06/23 05:57:15;;;;;;;3.15;1.77;;;21.80;53.60;;;;;;5029488;28;20119;-78
2022/06/23 05:59:57;;;;;;;3.00;1.70;;;21.90;53.80;;;;;;5044105;28;20247;-78
2022/06/23 06:02:37;;;;;;;3.65;2.00;;;21.90;54.20;;;;;;5044337;28;20044;-78
2022/06/23 06:05:04;;;;;;;2.35;1.80;;;22.00;53.60;;;;;;5028190;28;20025;-78
2022/06/23 06:07:38;;;;;;;3.58;2.00;;;22.10;54.20;;;;;;5047125;28;20106;-78
2022/06/23 06:10:12;;;;;;;2.78;1.80;;;22.20;54.30;;;;;;5043358;28;20170;-78
2022/06/23 06:12:40;;;;;;;2.10;1.73;;;22.30;54.00;;;;;;5036035;28;20692;-78
2022/06/23 06:15:22;;;;;;;3.13;1.77;;;22.40;54.20;;;;;;5037838;28;20072;-78
2022/06/23 06:17:52;;;;;;;4.50;2.00;;;22.50;55.00;;;;;;5056778;28;20029;-78
2022/06/23 06:20:25;;;;;;;3.03;1.88;;;22.60;54.40;;;;;;5031710;28;20489;-78
2022/06/23 06:22:57;;;;;;;3.28;2.20;;;22.70;55.00;;;;;;5047467;28;20499;-78
2022/06/23 06:25:33;;;;;;;3.33;2.20;;;22.80;55.20;;;;;;5049180;28;20053;-78
2022/06/23 06:28:09;;;;;;;4.00;2.30;;;22.90;55.60;;;;;;5034507;28;20380;-78
2022/06/23 06:30:39;;;;;;;2.92;2.20;;;23.00;55.20;;;;;;5054477;28;20028;-78
2022/06/23 06:33:05;;;;;;;4.45;2.20;;;23.20;55.50;;;;;;5044794;28;20032;-78
2022/06/23 06:35:36;;;;;;;3.50;2.00;;;23.30;55.60;;;;;;5047291;28;20051;-78
2022/06/23 06:38:08;;;;;;;3.58;2.20;;;23.40;56.40;;;;;;5026067;28;20052;-78
2022/06/23 06:40:37;;;;;;;4.25;2.30;;;23.50;56.30;;;;;;5042573;28;20890;-78
2022/06/23 06:43:11;;;;;;;3.97;2.30;;;23.60;56.80;;;;;;5046810;28;20021;-78
2022/06/23 06:45:39;;;;;;;4.75;2.38;;;23.80;57.00;;;;;;5038466;28;20045;-78
2022/06/23 06:48:18;;;;;;;3.87;2.10;;;23.90;56.30;;;;;;5044316;28;20047;-78
2022/06/23 06:50:52;;;;;;;4.00;2.30;;;24.00;57.30;;;;;;5050973;28;20607;-78
2022/06/23 06:53:32;;;;;;;3.47;2.05;;;24.10;57.20;;;;;;5007734;28;20033;-78
2022/06/23 06:56:08;;;;;;;3.95;2.13;;;24.20;57.10;;;;;;5057530;28;20112;-78
2022/06/23 06:58:59;;;;;;;6.82;2.40;;;24.30;57.20;;;;;;5035977;28;20040;-78
2022/06/23 07:01:27;;;;;;;3.93;2.20;;;24.50;58.00;;;;;;5046139;28;20048;-78
2022/06/23 07:03:54;;;;;;;3.60;2.10;;;24.60;56.90;;;;;;5049969;28;20021;-79
2022/06/23 07:06:29;;;;;;;4.25;2.60;;;24.70;57.10;;;;;;5042039;28;20528;-79
2022/06/23 07:08:58;;;;;;;4.43;2.45;;;24.80;57.80;;;;;;5034842;28;20099;-79
2022/06/23 07:11:50;;;;;;;4.85;2.50;;;24.90;57.10;;;;;;5042340;28;20057;-79
2022/06/23 07:14:33;;;;;;;3.37;2.23;;;25.00;57.00;;;;;;5053422;28;20042;-78
2022/06/23 07:17:09;;;;;;;5.13;2.35;;;25.10;57.50;;;;;;5072112;28;20108;-78
2022/06/23 07:19:42;;;;;;;3.47;2.53;;;25.20;57.90;;;;;;5044570;28;20028;-78
2022/06/23 07:22:41;;;;;;;4.03;2.38;;;25.30;57.90;;;;;;5046616;28;20170;-79
2022/06/23 07:25:24;;;;;;;4.15;2.40;;;25.40;58.20;;;;;;5027923;28;20102;-79
2022/06/23 07:27:55;;;;;;;5.37;2.53;;;25.50;58.20;;;;;;5058804;28;20467;-79
2022/06/23 07:30:52;;;;;;;3.92;2.65;;;25.70;58.10;;;;;;5047154;28;20035;-78
2022/06/23 07:33:44;;;;;;;3.88;2.33;;;25.70;58.20;;;;;;5059805;28;20037;-77
2022/06/23 07:36:23;;;;;;;5.15;2.88;;;25.90;58.70;;;;;;5050364;28;20090;-78
2022/06/23 07:39:01;;;;;;;5.85;2.80;;;26.00;58.60;;;;;;5060896;28;20041;-79
2022/06/23 07:41:39;;;;;;;5.50;2.80;;;26.10;58.90;;;;;;5028048;28;20529;-78
2022/06/23 07:44:18;;;;;;;3.40;2.60;;;26.30;59.80;;;;;;5056656;28;20032;-78
2022/06/23 07:46:44;;;;;;;4.75;2.60;;;26.70;60.20;;;;;;5055352;28;20036;-79
2022/06/23 07:49:09;;;;;;;5.70;2.70;;;27.00;60.10;;;;;;5063788;28;20054;-79
2022/06/23 07:51:36;;;;;;;4.13;2.40;;;27.30;60.20;;;;;;5045620;28;20274;-79
2022/06/23 07:54:05;;;;;;;6.03;2.83;;;27.70;60.10;;;;;;5063602;28;20035;-79
2022/06/23 07:56:33;;;;;;;4.78;2.70;;;28.10;60.60;;;;;;5031023;28;20351;-79
2022/06/23 07:59:07;;;;;;;4.47;2.80;;;28.50;59.10;;;;;;5069198;28;20241;-79
2022/06/23 08:02:05;;;;;;;3.72;2.42;;;28.70;58.50;;;;;;5054016;28;20025;-78
2022/06/23 08:04:37;;;;;;;4.10;2.73;;;29.10;57.80;;;;;;5054305;28;20290;-79
2022/06/23 08:07:06;;;;;;;3.80;2.30;;;29.20;57.10;;;;;;5058189;28;20389;-79
2022/06/23 08:09:37;;;;;;;3.33;2.30;;;29.30;56.30;;;;;;5049844;28;20400;-78
2022/06/23 08:17:50;;;;;;;3.97;2.77;;;29.40;55.70;;;;;;5064546;28;20032;-78
2022/06/23 08:20:20;;;;;;;3.97;2.83;;;29.30;55.40;;;;;;5055602;28;20369;-78
2022/06/23 08:22:48;;;;;;;4.18;3.03;;;29.20;55.10;;;;;;5052904;28;20024;-79
2022/06/23 08:25:16;;;;;;;4.03;2.78;;;29.10;55.00;;;;;;5026083;28;20581;-78
2022/06/23 08:27:44;;;;;;;5.20;2.53;;;29.00;55.00;;;;;;5042371;28;20498;-79
2022/06/23 08:30:17;;;;;;;3.70;2.57;;;28.90;55.40;;;;;;5053424;28;20063;-79
2022/06/23 08:32:47;;;;;;;4.93;2.78;;;28.90;56.00;;;;;;5051753;28;20285;-79
2022/06/23 08:35:39;;;;;;;3.67;2.60;;;28.90;56.00;;;;;;5040812;28;20332;-79
2022/06/23 08:38:12;;;;;;;3.83;2.85;;;28.90;56.00;;;;;;5052551;28;20037;-79
2022/06/23 08:40:56;;;;;;;3.10;2.65;;;29.00;57.20;;;;;;5031120;28;20501;-79
2022/06/23 08:43:55;;;;;;;4.40;2.97;;;29.20;57.30;;;;;;5045255;28;20654;-78
2022/06/23 08:46:33;;;;;;;4.93;2.80;;;29.60;57.20;;;;;;5050385;28;20473;-79
2022/06/23 08:49:10;;;;;;;4.55;2.92;;;30.00;57.90;;;;;;5048199;28;20064;-79
2022/06/23 08:51:56;;;;;;;7.13;3.35;;;30.40;58.50;;;;;;5054263;28;20048;-79
2022/06/23 08:54:31;;;;;;;4.03;2.95;;;31.00;56.90;;;;;;5048265;28;20152;-79
2022/06/23 08:57:08;;;;;;;3.37;2.57;;;31.40;56.50;;;;;;5026826;28;20029;-79
2022/06/23 08:59:51;;;;;;;4.00;2.35;;;31.90;56.30;;;;;;5065680;28;20025;-79
2022/06/23 09:02:24;;;;;;;4.13;2.80;;;32.20;55.90;;;;;;5040617;28;20066;-78
2022/06/23 09:05:07;;;;;;;2.30;2.10;;;32.60;54.40;;;;;;5052612;28;20083;-79
2022/06/23 09:07:58;;;;;;;3.70;2.58;;;32.80;52.60;;;;;;5052239;28;20055;-79
2022/06/23 09:10:30;;;;;;;3.20;2.60;;;32.80;51.20;;;;;;5034662;28;20288;-79
2022/06/23 09:13:29;;;;;;;4.00;2.75;;;32.70;51.00;;;;;;5027340;28;20037;-79
2022/06/23 09:16:06;;;;;;;3.08;2.13;;;32.70;51.50;;;;;;5055861;28;20040;-80
2022/06/23 09:18:43;;;;;;;3.22;2.80;;;32.80;52.70;;;;;;5059013;28;20033;-79
2022/06/23 09:21:28;;;;;;;3.65;2.70;;;33.10;53.20;;;;;;5053481;28;20029;-79
2022/06/23 09:24:07;;;;;;;3.40;2.40;;;33.50;51.70;;;;;;5045126;28;20461;-79
2022/06/23 09:26:46;;;;;;;3.10;2.50;;;33.80;52.50;;;;;;5053932;28;20044;-79
2022/06/23 09:29:53;;;;;;;3.80;2.38;;;34.10;52.10;;;;;;5033663;28;20450;-80
2022/06/23 09:32:34;;;;;;;3.78;2.70;;;34.40;49.80;;;;;;5052181;28;20037;-79
2022/06/23 09:35:18;;;;;;;2.92;2.63;;;34.50;49.10;;;;;;5066208;28;20039;-79
2022/06/23 09:38:03;;;;;;;3.83;2.30;;;34.70;49.00;;;;;;5042951;28;20095;-80
2022/06/23 09:40:53;;;;;;;2.60;2.40;;;34.90;50.10;;;;;;5044567;28;20258;-80
2022/06/23 09:43:19;;;;;;;2.88;2.20;;;35.20;49.80;;;;;;5028071;28;20060;-79
2022/06/23 09:46:13;;;;;;;3.47;2.10;;;35.50;49.40;;;;;;5060924;28;20451;-79
2022/06/23 09:49:09;;;;;;;3.00;1.92;;;35.70;47.10;;;;;;5041012;28;20536;-78
2022/06/23 09:52:11;;;;;;;2.92;2.30;;;35.90;46.10;;;;;;5071366;28;20617;-79
2022/06/23 09:54:52;;;;;;;2.97;2.08;;;36.00;45.90;;;;;;5045137;28;20356;-79
2022/06/23 09:57:39;;;;;;;4.30;2.15;;;36.00;45.40;;;;;;5049527;28;20055;-79
2022/06/23 10:00:40;;;;;;;3.13;2.37;;;35.90;45.50;;;;;;5028798;28;20042;-78
2022/06/23 10:03:20;;;;;;;3.90;2.47;;;36.00;45.70;;;;;;5061670;28;20032;-79
2022/06/23 10:06:04;;;;;;;3.30;2.50;;;36.10;45.50;;;;;;5054879;28;20055;-79
2022/06/23 10:08:34;;;;;;;3.22;2.55;;;36.40;46.60;;;;;;5058055;28;20751;-80
2022/06/23 10:11:09;;;;;;;3.03;2.58;;;36.60;46.20;;;;;;5058237;28;20559;-79
2022/06/23 10:13:47;;;;;;;3.00;2.70;;;36.70;44.60;;;;;;5045466;28;20249;-80
2022/06/23 10:16:30;;;;;;;3.13;2.35;;;36.80;44.60;;;;;;5023697;28;20123;-79
2022/06/23 10:19:09;;;;;;;4.25;2.83;;;36.90;43.90;;;;;;5053722;28;20041;-80
2022/06/23 10:21:43;;;;;;;3.80;2.60;;;36.90;43.50;;;;;;5034095;28;20231;-80
2022/06/23 10:24:55;;;;;;;3.42;2.38;;;36.80;43.10;;;;;;5055274;28;20599;-79
2022/06/23 10:27:24;;;;;;;5.67;2.33;;;36.90;43.30;;;;;;5024563;28;20214;-79
2022/06/23 10:30:19;;;;;;;2.88;2.53;;;37.00;44.40;;;;;;5053008;28;20037;-79
2022/06/23 10:32:57;;;;;;;2.50;2.20;;;37.10;43.80;;;;;;5049527;28;20078;-79
2022/06/23 10:35:47;;;;;;;3.90;2.50;;;37.30;42.70;;;;;;5056054;28;20500;-80
2022/06/23 10:38:34;;;;;;;3.70;2.53;;;37.40;43.20;;;;;;5056862;28;20036;-80
2022/06/23 10:41:09;;;;;;;5.00;3.00;;;37.70;40.90;;;;;;5043411;28;20032;-80
2022/06/23 10:43:57;;;;;;;4.05;3.00;;;37.80;41.80;;;;;;5051710;28;20222;-79
2022/06/23 10:46:57;;;;;;;3.00;2.10;;;38.00;41.70;;;;;;5028572;28;20123;-80
2022/06/23 10:49:35;;;;;;;4.10;2.65;;;38.00;40.80;;;;;;5048721;28;20277;-79
2022/06/23 10:52:13;;;;;;;3.47;2.60;;;38.00;40.30;;;;;;5044359;28;20033;-80
2022/06/23 10:54:56;;;;;;;3.93;2.63;;;38.00;41.20;;;;;;5070861;28;20320;-80
2022/06/23 10:57:22;;;;;;;2.83;2.40;;;38.00;40.60;;;;;;5041234;28;20134;-79
2022/06/23 11:00:25;;;;;;;3.60;2.63;;;38.00;40.70;;;;;;5054393;28;20037;-80
2022/06/23 11:03:09;;;;;;;4.03;2.35;;;38.10;40.10;;;;;;5062541;28;20029;-79
2022/06/23 11:06:04;;;;;;;4.13;2.47;;;38.10;40.90;;;;;;5049558;28;20675;-80
2022/06/23 11:08:36;;;;;;;2.78;2.33;;;38.20;40.40;;;;;;5059317;28;20122;-79
2022/06/23 11:11:33;;;;;;;2.95;2.45;;;38.40;41.00;;;;;;5061429;28;20035;-79
2022/06/23 11:14:19;;;;;;;2.67;2.20;;;38.40;39.50;;;;;;5050040;28;20049;-78
2022/06/23 11:16:59;;;;;;;3.35;2.10;;;38.50;39.70;;;;;;5027916;28;20025;-79
2022/06/23 11:19:46;;;;;;;3.78;2.53;;;38.50;39.60;;;;;;5051720;28;20158;-80
2022/06/23 11:22:14;;;;;;;2.67;2.00;;;38.50;39.70;;;;;;5047648;28;20040;-79
2022/06/23 11:25:02;;;;;;;4.35;2.50;;;38.60;39.80;;;;;;5070877;28;20098;-79
2022/06/23 11:28:05;;;;;;;3.37;2.63;;;38.80;39.10;;;;;;5065149;28;20236;-79
2022/06/23 11:30:48;;;;;;;3.35;2.20;;;39.00;38.70;;;;;;5030165;28;20511;-79
2022/06/23 11:33:20;;;;;;;3.35;2.38;;;39.00;38.00;;;;;;5061068;28;20218;-80
2022/06/23 11:36:20;;;;;;;3.75;2.65;;;39.00;37.50;;;;;;5053907;28;20040;-79
2022/06/23 11:38:55;;;;;;;3.67;2.50;;;38.90;37.90;;;;;;5051034;28;20456;-79
2022/06/23 11:41:41;;;;;;;3.00;2.57;;;38.80;37.40;;;;;;5051415;28;20033;-79
2022/06/23 11:44:25;;;;;;;4.15;2.42;;;38.70;35.40;;;;;;5043302;28;20060;-80
2022/06/23 11:46:57;;;;;;;3.53;2.10;;;38.50;36.30;;;;;;5026682;28;20036;-78
2022/06/23 11:50:16;;;;;;;3.63;2.15;;;38.30;36.90;;;;;;5034890;28;20045;-79
2022/06/23 11:52:59;;;;;;;4.00;2.28;;;38.10;37.60;;;;;;5031023;28;20063;-79
2022/06/23 11:55:38;;;;;;;2.83;2.00;;;38.00;36.70;;;;;;5059629;28;20296;-79
2022/06/23 11:58:13;;;;;;;3.33;1.80;;;37.70;36.20;;;;;;5063997;28;20218;-79
2022/06/23 12:00:56;;;;;;;2.33;1.65;;;37.50;36.70;;;;;;5049415;28;20544;-79
2022/06/23 12:04:00;;;;;;;2.53;1.80;;;37.40;37.10;;;;;;5023619;28;20249;-78
2022/06/23 12:06:40;;;;;;;2.05;1.90;;;37.50;37.50;;;;;;5047482;28;20115;-79
2022/06/23 12:09:11;;;;;;;2.27;1.90;;;37.50;37.60;;;;;;5065193;28;20492;-79
2022/06/23 12:11:38;;;;;;;2.47;1.80;;;37.60;37.60;;;;;;5054381;28;20330;-79
2022/06/23 12:14:07;;;;;;;3.88;2.05;;;37.80;37.70;;;;;;5048417;28;20032;-79
2022/06/23 12:16:39;;;;;;;2.65;1.70;;;37.90;37.20;;;;;;5044922;28;20037;-79
2022/06/23 12:19:13;;;;;;;2.60;1.90;;;38.10;37.40;;;;;;5034065;28;20033;-79
2022/06/23 12:22:23;;;;;;;5.30;1.97;;;38.30;36.50;;;;;;5056475;28;20025;-79
2022/06/23 12:24:58;;;;;;;3.08;2.03;;;38.50;36.80;;;;;;5041542;28;20033;-79
2022/06/23 12:27:51;;;;;;;3.47;1.88;;;38.70;36.60;;;;;;5042871;28;20191;-79
2022/06/23 12:30:18;;;;;;;2.80;2.13;;;38.90;36.50;;;;;;5056792;28;20470;-79
2022/06/23 12:33:29;;;;;;;4.18;2.40;;;39.00;37.10;;;;;;5058230;28;20104;-79
2022/06/23 12:36:05;;;;;;;2.10;1.57;;;39.20;36.20;;;;;;5019199;28;20099;-78
2022/06/23 12:38:41;;;;;;;3.65;2.30;;;39.40;35.90;;;;;;4994626;28;20347;-79
2022/06/23 12:41:11;;;;;;;4.00;2.05;;;39.50;35.10;;;;;;5022308;28;20131;-79
2022/06/23 12:44:14;;;;;;;2.58;1.67;;;39.50;35.10;;;;;;5062051;28;20308;-78
2022/06/23 12:46:59;;;;;;;2.70;1.80;;;39.60;34.40;;;;;;5038942;28;20423;-79
2022/06/23 12:49:36;;;;;;;2.83;2.00;;;39.70;33.90;;;;;;5031417;28;20097;-80
2022/06/23 12:52:06;;;;;;;3.20;2.20;;;39.70;34.10;;;;;;5040141;28;20035;-78
2022/06/23 12:54:43;;;;;;;2.45;1.98;;;39.70;34.10;;;;;;5051865;28;20044;-79
2022/06/23 12:57:25;;;;;;;2.78;1.90;;;39.60;33.70;;;;;;5059747;28;21405;-79
2022/06/23 13:00:01;;;;;;;2.17;1.65;;;39.50;34.10;;;;;;5066789;28;20028;-79
2022/06/23 13:02:36;;;;;;;2.47;1.70;;;39.60;33.80;;;;;;5046530;28;20048;-79
2022/06/23 13:05:26;;;;;;;2.97;1.88;;;39.50;33.90;;;;;;5035631;28;20033;-80
2022/06/23 13:08:00;;;;;;;2.47;1.92;;;39.50;33.40;;;;;;5038899;28;20051;-80
2022/06/23 13:10:48;;;;;;;2.58;1.90;;;39.40;33.40;;;;;;5060958;28;20215;-79
2022/06/23 13:13:23;;;;;;;3.20;1.92;;;39.40;33.00;;;;;;5055004;28;20032;-78
2022/06/23 13:16:02;;;;;;;3.37;1.57;;;39.30;32.80;;;;;;5047839;28;20308;-78
2022/06/23 13:18:35;;;;;;;2.75;1.73;;;39.20;32.60;;;;;;5058908;28;20067;-79
2022/06/23 13:21:01;;;;;;;2.78;1.80;;;39.10;33.00;;;;;;5010133;28;20128;-79
2022/06/23 13:23:39;;;;;;;1.70;1.57;;;39.10;33.00;;;;;;5060837;28;20427;-79
2022/06/23 13:26:20;;;;;;;1.90;1.55;;;39.00;32.90;;;;;;5036750;28;20147;-79
2022/06/23 13:28:46;;;;;;;2.20;1.70;;;39.00;33.10;;;;;;5054245;28;20591;-79
2022/06/23 13:31:19;;;;;;;1.55;1.45;;;38.90;33.10;;;;;;5058584;28;20055;-79
2022/06/23 13:33:59;;;;;;;1.63;1.42;;;38.90;33.00;;;;;;5044174;28;20040;-79
2022/06/23 13:36:39;;;;;;;1.63;1.50;;;38.80;32.90;;;;;;5025660;28;20409;-79
2022/06/23 13:39:14;;;;;;;1.50;1.40;;;38.80;33.10;;;;;;5049606;28;20043;-79
2022/06/23 13:41:49;;;;;;;2.60;1.70;;;38.90;32.70;;;;;;5034812;28;20037;-79
2022/06/23 13:44:49;;;;;;;2.17;1.48;;;39.00;33.00;;;;;;5056907;28;20060;-79
2022/06/23 13:47:31;;;;;;;1.98;1.73;;;39.00;32.90;;;;;;5043664;28;20662;-79
2022/06/23 13:50:18;;;;;;;2.33;1.60;;;39.00;32.40;;;;;;5023140;28;20297;-79
2022/06/23 13:52:56;;;;;;;2.75;1.58;;;38.90;32.20;;;;;;5033092;28;20021;-78
2022/06/23 13:55:44;;;;;;;2.72;1.88;;;38.80;32.00;;;;;;5039364;28;20037;-79
2022/06/23 13:58:15;;;;;;;1.95;1.55;;;38.80;32.70;;;;;;5050445;28;20077;-79
2022/06/23 14:01:07;;;;;;;1.73;1.50;;;38.60;31.90;;;;;;5051418;28;20040;-80